createdAt,value
2019-02-23T00:01:23.445Z,58.83
2019-02-23T00:03:53.781Z,55.57
2019-02-23T00:06:29.710Z,57.27
2019-02-23T00:08:56.111Z,50.27
2019-02-23T00:11:26.464Z,46.90
2019-02-23T00:13:56.833Z,53.93
2019-02-23T00:16:27.111Z,46.43
2019-02-23T00:18:57.387Z,43.60
2019-02-23T00:21:27.709Z,42.50
2019-02-23T00:23:57.979Z,34.30
2019-02-23T00:26:28.302Z,30.27
2019-02-23T00:28:58.597Z,32.50
2019-02-23T00:31:28.895Z,37.37
2019-02-23T00:33:59.157Z,45.83
2019-02-23T00:36:29.544Z,47.57
2019-02-23T00:38:59.969Z,44.70
2019-02-23T00:41:30.334Z,48.67
2019-02-23T00:44:01.489Z,49.23
2019-02-23T00:46:31.768Z,51.10
2019-02-23T00:49:02.041Z,48.90
2019-02-23T00:51:36.486Z,49.13
2019-02-23T00:54:06.780Z,46.53
2019-02-23T00:56:37.090Z,39.00
2019-02-23T00:59:07.358Z,34.90
2019-02-23T01:01:37.688Z,29.90
2019-02-23T01:04:07.974Z,35.13
2019-02-23T01:06:38.307Z,33.03
2019-02-23T01:09:08.600Z,31.33
2019-02-23T01:11:39.151Z,27.50
2019-02-23T01:14:09.463Z,29.20
2019-02-23T01:16:39.746Z,25.47
2019-02-23T01:19:10.009Z,25.57
2019-02-23T01:21:40.277Z,26.37
2019-02-23T01:24:10.642Z,27.13
2019-02-23T01:26:40.903Z,24.63
2019-02-23T01:29:12.140Z,20.93
2019-02-23T01:31:44.049Z,24.23
2019-02-23T01:34:14.439Z,20.70
2019-02-23T01:36:44.727Z,26.17
2019-02-23T01:39:15.007Z,25.83
2019-02-23T01:41:45.313Z,24.67
2019-02-23T01:44:15.678Z,25.17
2019-02-23T01:46:45.970Z,30.50
2019-02-23T01:49:16.319Z,30.93
2019-02-23T01:51:46.605Z,28.60
2019-02-23T01:54:17.069Z,26.00
2019-02-23T01:56:47.368Z,29.00
2019-02-23T01:59:17.679Z,28.60
2019-02-23T02:01:51.150Z,27.13
2019-02-23T02:04:21.421Z,37.17
2019-02-23T02:06:51.708Z,47.10
2019-02-23T02:09:22.478Z,52.03
2019-02-23T02:11:52.829Z,46.53
2019-02-23T02:14:23.132Z,55.80
2019-02-23T02:16:54.498Z,67.07
2019-02-23T02:19:24.749Z,70.43
2019-02-23T02:21:55.044Z,69.70
2019-02-23T02:24:25.335Z,72.47
2019-02-23T02:26:55.609Z,65.23
2019-02-23T02:29:25.919Z,65.20
2019-02-23T02:31:56.212Z,70.17
2019-02-23T02:34:27.530Z,64.97
2019-02-23T02:36:57.831Z,71.93
2019-02-23T02:39:28.119Z,73.97
2019-02-23T02:41:58.425Z,64.97
2019-02-23T02:44:28.707Z,80.53
2019-02-23T02:46:59.003Z,68.97
2019-02-23T02:49:29.276Z,63.23
2019-02-23T02:51:59.565Z,73.47
2019-02-23T02:54:29.871Z,65.33
2019-02-23T02:57:00.152Z,71.97
2019-02-23T02:59:30.426Z,83.33
2019-02-23T03:02:00.730Z,84.23
2019-02-23T03:04:31.170Z,96.13
2019-02-23T03:07:01.435Z,97.40
2019-02-23T03:09:31.719Z,100.43
2019-02-23T03:12:01.989Z,105.60
2019-02-23T03:14:32.283Z,82.90
2019-02-23T03:17:02.605Z,89.87
2019-02-23T03:19:33.951Z,113.47
2019-02-23T03:22:04.226Z,115.13
2019-02-23T03:24:34.527Z,104.33
2019-02-23T03:27:04.831Z,108.83
2019-02-23T03:29:35.124Z,109.97
2019-02-23T03:32:05.428Z,131.90
2019-02-23T03:34:35.695Z,114.90
2019-02-23T03:37:05.992Z,105.10
2019-02-23T03:39:36.329Z,102.07
2019-02-23T03:42:06.671Z,99.93
2019-02-23T03:44:36.948Z,94.67
2019-02-23T03:47:07.239Z,107.63
2019-02-23T03:49:37.637Z,110.50
2019-02-23T03:52:08.987Z,127.23
2019-02-23T03:54:39.284Z,107.93
2019-02-23T03:57:09.587Z,114.07
2019-02-23T03:59:39.887Z,91.07
2019-02-23T04:02:10.174Z,101.73
2019-02-23T04:04:41.013Z,114.20
2019-02-23T04:07:11.289Z,111.30
2019-02-23T04:09:41.645Z,99.73
2019-02-23T04:12:12.016Z,87.97
2019-02-23T04:14:42.313Z,84.70
2019-02-23T04:17:12.689Z,84.70
2019-02-23T04:19:42.964Z,92.73
2019-02-23T04:22:13.262Z,90.97
2019-02-23T04:24:43.540Z,97.67
2019-02-23T04:27:13.806Z,88.67
2019-02-23T04:29:46.935Z,82.50
2019-02-23T04:32:16.056Z,84.90
2019-02-23T04:34:46.339Z,78.13
2019-02-23T04:37:16.663Z,77.47
2019-02-23T04:39:46.956Z,71.70
2019-02-23T04:42:18.209Z,77.97
2019-02-23T04:44:48.488Z,75.97
2019-02-23T04:47:18.773Z,74.87
2019-02-23T04:49:54.515Z,80.77
2019-02-23T04:52:24.828Z,82.07
2019-02-23T04:54:55.138Z,73.13
2019-02-23T04:57:25.419Z,82.10
2019-02-23T04:59:55.677Z,82.47
2019-02-23T05:02:25.976Z,72.67
2019-02-23T05:04:56.247Z,75.30
2019-02-23T05:07:26.545Z,79.07
2019-02-23T05:09:56.821Z,75.30
2019-02-23T05:12:27.110Z,78.27
2019-02-23T05:14:57.442Z,84.33
2019-02-23T05:17:27.874Z,91.93
2019-02-23T05:19:58.458Z,95.43
2019-02-23T05:22:28.772Z,87.27
2019-02-23T05:24:59.431Z,97.43
2019-02-23T05:27:29.769Z,99.97
2019-02-23T05:30:00.039Z,102.97
2019-02-23T05:32:30.334Z,99.33
2019-02-23T05:35:00.707Z,98.23
2019-02-23T05:37:30.999Z,93.70
2019-02-23T05:40:01.307Z,94.90
2019-02-23T05:42:32.049Z,104.93
2019-02-23T05:45:02.335Z,104.17
2019-02-23T05:47:32.712Z,110.50
2019-02-23T05:50:03.237Z,108.33
2019-02-23T05:52:33.770Z,116.53
2019-02-23T05:55:04.536Z,111.23
2019-02-23T05:57:34.885Z,122.17
2019-02-23T06:00:09.096Z,119.10
2019-02-23T06:02:39.739Z,116.10
2019-02-23T06:05:10.107Z,106.90
2019-02-23T06:07:40.502Z,130.53
2019-02-23T06:10:10.801Z,124.20
2019-02-23T06:12:41.363Z,163.40
2019-02-23T06:15:12.611Z,197.43
2019-02-23T06:17:42.896Z,187.07
2019-02-23T06:20:15.202Z,149.97
2019-02-23T06:22:46.788Z,123.57
2019-02-23T06:25:17.477Z,103.83
2019-02-23T06:27:47.865Z,97.67
2019-02-23T06:30:18.484Z,94.83
2019-02-23T06:32:48.921Z,112.57
2019-02-23T06:35:19.312Z,108.97
2019-02-23T06:37:49.589Z,117.50
2019-02-23T06:40:20.068Z,108.93
2019-02-23T06:42:50.393Z,97.47
2019-02-23T06:45:20.690Z,88.60
2019-02-23T06:47:51.068Z,85.37
2019-02-23T06:50:21.362Z,81.43
2019-02-23T06:52:51.647Z,79.23
2019-02-23T06:55:21.996Z,67.70
2019-02-23T06:57:52.403Z,67.43
2019-02-23T07:00:22.722Z,58.90
2019-02-23T07:02:53.346Z,69.47
2019-02-23T07:05:23.637Z,70.63
2019-02-23T07:07:54.193Z,93.03
2019-02-23T07:10:24.571Z,83.50
2019-02-23T07:12:55.100Z,66.43
2019-02-23T07:15:25.674Z,64.53
2019-02-23T07:17:56.104Z,72.50
2019-02-23T07:20:26.408Z,65.97
2019-02-23T07:22:56.844Z,59.70
2019-02-23T07:25:27.149Z,68.13
2019-02-23T07:27:57.492Z,51.53
2019-02-23T07:30:27.827Z,54.33
2019-02-23T07:32:58.219Z,53.07
2019-02-23T07:35:28.677Z,49.80
2019-02-23T07:37:59.822Z,44.00
2019-02-23T07:40:30.195Z,43.10
2019-02-23T07:43:00.522Z,41.53
2019-02-23T07:45:30.947Z,41.50
2019-02-23T07:48:01.526Z,37.57
2019-02-23T07:50:31.950Z,32.67
2019-02-23T07:53:02.543Z,34.40
2019-02-23T07:55:32.807Z,31.60
2019-02-23T07:58:03.163Z,34.03
2019-02-23T08:00:33.524Z,30.87
2019-02-23T08:03:03.971Z,27.00
2019-02-23T08:05:34.256Z,38.87
2019-02-23T08:08:04.591Z,36.80
2019-02-23T08:10:35.070Z,36.08
2019-02-23T08:13:06.646Z,37.63
2019-02-23T08:15:36.940Z,36.87
2019-02-23T08:18:07.234Z,41.60
2019-02-23T08:20:37.513Z,33.13
2019-02-23T08:23:07.789Z,33.03
2019-02-23T08:25:38.445Z,38.30
2019-02-23T08:28:08.711Z,35.33
2019-02-23T08:30:39.125Z,35.03
2019-02-23T08:33:09.411Z,35.17
2019-02-23T08:35:39.688Z,31.60
2019-02-23T08:38:09.980Z,28.43
2019-02-23T08:40:40.313Z,37.37
2019-02-23T08:43:10.601Z,41.90
2019-02-23T08:45:40.932Z,36.77
2019-02-23T08:48:11.280Z,36.93
2019-02-23T08:50:42.747Z,43.73
2019-02-23T08:53:13.033Z,34.03
2019-02-23T08:55:43.338Z,31.63
2019-02-23T08:58:14.162Z,33.70
2019-02-23T09:00:44.436Z,31.13
2019-02-23T09:03:14.724Z,29.87
2019-02-23T09:05:45.020Z,28.77
2019-02-23T09:08:15.388Z,28.63
2019-02-23T09:10:45.709Z,27.43
2019-02-23T09:13:15.983Z,26.13
2019-02-23T09:15:46.306Z,27.83
2019-02-23T09:18:16.609Z,24.93
2019-02-23T09:20:47.375Z,29.33
2019-02-23T09:23:17.655Z,22.30
2019-02-23T09:25:49.595Z,19.07
2019-02-23T09:28:19.859Z,20.90
2019-02-23T09:30:50.152Z,20.70
2019-02-23T09:33:20.415Z,23.67
2019-02-23T09:35:50.748Z,22.30
2019-02-23T09:38:21.025Z,19.47
2019-02-23T09:40:51.313Z,16.03
2019-02-23T09:43:21.612Z,14.47
2019-02-23T09:45:51.888Z,12.67
2019-02-23T09:48:23.642Z,15.47
2019-02-23T09:50:53.940Z,17.87
2019-02-23T09:53:24.220Z,14.83
2019-02-23T09:55:54.541Z,15.13
2019-02-23T09:58:24.818Z,14.07
2019-02-23T10:00:55.430Z,15.70
2019-02-23T10:03:25.997Z,12.73
2019-02-23T10:05:57.058Z,16.80
2019-02-23T10:08:27.345Z,14.10
2019-02-23T10:10:57.771Z,16.27
2019-02-23T10:13:28.039Z,22.23
2019-02-23T10:16:00.933Z,14.27
2019-02-23T10:18:31.551Z,14.90
2019-02-23T10:21:01.901Z,12.30
2019-02-23T10:23:32.213Z,11.73
2019-02-23T10:26:04.130Z,12.27
2019-02-23T10:28:35.509Z,13.67
2019-02-23T10:31:05.867Z,10.90
2019-02-23T10:33:38.475Z,20.33
2019-02-23T10:36:08.140Z,15.87
2019-02-23T10:38:39.506Z,17.73
2019-02-23T10:41:09.787Z,17.00
2019-02-23T10:43:40.112Z,20.10
2019-02-23T10:46:10.441Z,17.20
2019-02-23T10:48:40.762Z,29.83
2019-02-23T10:51:11.059Z,21.23
2019-02-23T10:53:41.359Z,15.60
2019-02-23T10:56:11.608Z,18.40
2019-02-23T10:58:41.952Z,16.70
2019-02-23T11:01:12.423Z,18.13
2019-02-23T11:03:43.961Z,18.43
2019-02-23T11:06:14.215Z,19.20
2019-02-23T11:08:44.483Z,16.87
2019-02-23T11:11:14.823Z,16.17
2019-02-23T11:13:45.131Z,21.57
2019-02-23T11:16:16.382Z,22.23
2019-02-23T11:18:46.673Z,20.90
2019-02-23T11:21:16.969Z,16.43
2019-02-23T11:23:47.252Z,17.03
2019-02-23T11:26:17.672Z,17.33
2019-02-23T11:28:47.951Z,27.07
2019-02-23T11:31:18.243Z,21.10
2019-02-23T11:33:48.540Z,20.07
2019-02-23T11:36:18.804Z,20.60
2019-02-23T11:38:49.100Z,261.43
2019-02-23T11:41:19.417Z,36.13
2019-02-23T11:43:49.708Z,24.23
2019-02-23T11:46:20.085Z,25.07
2019-02-23T11:48:50.449Z,23.93
2019-02-23T11:51:20.733Z,19.57
2019-02-23T11:53:54.826Z,19.13
2019-02-23T11:56:22.994Z,28.40
2019-02-23T11:58:53.293Z,21.33
2019-02-23T12:01:23.701Z,25.13
2019-02-23T12:03:53.994Z,20.60
2019-02-23T12:06:24.273Z,18.73
2019-02-23T12:08:57.188Z,20.27
2019-02-23T12:11:27.715Z,34.27
2019-02-23T12:13:59.779Z,22.03
2019-02-23T12:16:30.071Z,20.93
2019-02-23T12:19:00.341Z,18.90
2019-02-23T12:21:31.369Z,17.80
2019-02-23T12:24:05.948Z,17.63
2019-02-23T12:26:34.770Z,19.87
2019-02-23T12:29:05.048Z,21.77
2019-02-23T12:31:35.324Z,16.57
2019-02-23T12:34:05.598Z,21.33
2019-02-23T12:36:35.913Z,17.97
2019-02-23T12:39:06.384Z,19.30
2019-02-23T12:41:38.753Z,17.60
2019-02-23T12:44:09.337Z,21.27
2019-02-23T12:46:39.614Z,21.90
2019-02-23T12:49:09.939Z,19.57
2019-02-23T12:51:41.244Z,19.30
2019-02-23T12:54:16.749Z,23.20
2019-02-23T12:56:43.505Z,21.90
2019-02-23T12:59:14.093Z,23.27
2019-02-23T13:01:44.505Z,24.63
2019-02-23T13:04:14.935Z,18.70
2019-02-23T13:06:46.277Z,20.60
2019-02-23T13:09:19.138Z,18.93
2019-02-23T13:12:04.530Z,19.40
2019-02-23T13:14:53.485Z,22.00
2019-02-23T13:17:49.614Z,21.10
2019-02-23T13:20:31.917Z,24.80
2019-02-23T13:23:14.532Z,19.00
2019-02-23T13:26:04.967Z,21.17
2019-02-23T13:28:50.635Z,17.80
2019-02-23T13:31:43.557Z,21.93
2019-02-23T13:34:26.122Z,25.87
2019-02-23T13:37:05.571Z,24.10
2019-02-23T13:39:57.444Z,21.43
2019-02-23T13:42:52.402Z,23.77
2019-02-23T13:45:41.067Z,22.27
2019-02-23T13:48:26.392Z,22.57
2019-02-23T13:51:11.954Z,21.40
2019-02-23T13:54:08.284Z,24.47
2019-02-23T13:56:50.965Z,22.60
2019-02-23T13:59:36.669Z,25.60
2019-02-23T14:02:29.827Z,47.60
2019-02-23T14:05:12.193Z,23.80
2019-02-23T14:08:08.512Z,30.03
2019-02-23T14:10:50.747Z,25.70
2019-02-23T14:13:39.377Z,23.97
2019-02-23T14:16:30.804Z,21.43
2019-02-23T14:19:10.478Z,19.53
2019-02-23T14:21:52.886Z,18.80
2019-02-23T14:24:49.678Z,18.10
2019-02-23T14:27:39.616Z,21.27
2019-02-23T14:30:29.480Z,22.23
2019-02-23T14:33:27.223Z,21.57
2019-02-23T14:36:35.743Z,18.03
2019-02-23T14:39:35.116Z,22.50
2019-02-23T14:42:08.920Z,24.77
2019-02-23T14:44:49.436Z,15.53
2019-02-23T14:47:28.495Z,21.27
2019-02-23T14:50:04.875Z,34.60
2019-02-23T14:52:56.751Z,221.20
2019-02-23T14:55:39.908Z,32.93
2019-02-23T14:58:32.623Z,23.43
2019-02-23T15:01:24.149Z,33.67
2019-02-23T15:04:12.583Z,23.57
2019-02-23T15:07:06.284Z,26.87
2019-02-23T15:10:13.711Z,28.00
2019-02-23T15:12:53.047Z,23.53
2019-02-23T15:15:29.340Z,30.93
2019-02-23T15:18:12.228Z,35.63
2019-02-23T15:20:54.764Z,35.40
2019-02-23T15:23:34.246Z,34.03
2019-02-23T15:26:13.693Z,26.33
2019-02-23T15:29:11.424Z,59.80
2019-02-23T15:32:00.164Z,83.37
2019-02-23T15:34:43.116Z,60.80
2019-02-23T15:37:41.027Z,96.30
2019-02-23T15:40:20.589Z,65.30
2019-02-23T15:43:03.260Z,72.37
2019-02-23T15:46:11.780Z,75.53
2019-02-23T15:48:54.280Z,51.23
2019-02-23T15:51:24.914Z,68.40
2019-02-23T15:53:55.343Z,93.37
2019-02-23T15:56:27.344Z,87.57
2019-02-23T15:58:57.635Z,62.27
2019-02-23T16:01:29.862Z,76.33
2019-02-23T16:04:00.617Z,85.83
2019-02-23T16:06:31.752Z,63.53
2019-02-23T16:09:03.267Z,50.87
2019-02-23T16:11:34.206Z,33.27
2019-02-23T16:14:04.551Z,33.63
2019-02-23T16:16:34.842Z,121.13
2019-02-23T16:19:05.188Z,57.47
2019-02-23T16:21:35.479Z,126.10
2019-02-23T16:24:05.872Z,117.63
2019-02-23T16:26:36.245Z,135.67
2019-02-23T16:29:06.988Z,44.67
2019-02-23T16:31:37.285Z,53.37
2019-02-23T16:34:07.728Z,101.23
2019-02-23T16:36:37.991Z,150.33
2019-02-23T16:39:10.131Z,104.23
2019-02-23T16:41:40.636Z,306.07
2019-02-23T16:44:15.153Z,329.87
2019-02-23T16:46:46.510Z,121.10
2019-02-23T16:49:16.949Z,353.23
2019-02-23T16:51:47.250Z,153.13
2019-02-23T16:54:17.554Z,457.73
2019-02-23T16:56:48.212Z,326.27
2019-02-23T16:59:18.521Z,309.57
2019-02-23T17:01:48.846Z,147.57
2019-02-23T17:04:19.151Z,349.13
2019-02-23T17:06:49.430Z,538.97
2019-02-23T17:09:19.744Z,443.90
2019-02-23T17:11:50.098Z,407.37
2019-02-23T17:14:21.165Z,435.10
2019-02-23T17:16:51.484Z,414.47
2019-02-23T17:19:22.788Z,333.47
2019-02-23T17:21:53.087Z,349.60
2019-02-23T17:24:23.406Z,317.40
2019-02-23T17:26:53.784Z,303.40
2019-02-23T17:29:25.658Z,286.10
2019-02-23T17:31:55.989Z,177.40
2019-02-23T17:34:26.370Z,252.87
2019-02-23T17:36:56.665Z,254.07
2019-02-23T17:39:26.963Z,188.30
2019-02-23T17:41:57.305Z,182.77
2019-02-23T17:44:27.607Z,137.80
2019-02-23T17:46:57.906Z,139.10
2019-02-23T17:49:28.203Z,217.77
2019-02-23T17:51:58.583Z,286.97
2019-02-23T17:54:28.871Z,247.57
2019-02-23T17:56:59.191Z,213.90
2019-02-23T17:59:30.476Z,190.93
2019-02-23T18:02:00.834Z,207.53
2019-02-23T18:04:32.221Z,173.17
2019-02-23T18:07:02.494Z,168.80
2019-02-23T18:09:33.747Z,127.77
2019-02-23T18:12:04.067Z,128.13
2019-02-23T18:14:34.465Z,126.07
2019-02-23T18:17:04.818Z,276.90
2019-02-23T18:19:35.099Z,504.90
2019-02-23T18:22:05.411Z,826.97
2019-02-23T18:24:36.767Z,431.40
2019-02-23T18:27:08.490Z,317.47
2019-02-23T18:29:38.926Z,334.70
2019-02-23T18:32:09.216Z,484.07
2019-02-23T18:34:39.579Z,530.90
2019-02-23T18:37:09.924Z,451.30
2019-02-23T18:39:40.217Z,303.57
2019-02-23T18:42:11.698Z,266.63
2019-02-23T18:44:42.270Z,181.03
2019-02-23T18:47:12.622Z,149.63
2019-02-23T18:49:43.025Z,126.43
2019-02-23T18:52:13.356Z,117.27
2019-02-23T18:54:43.697Z,106.90
2019-02-23T18:57:14.048Z,91.33
2019-02-23T18:59:44.398Z,103.63
2019-02-23T19:02:14.926Z,107.27
2019-02-23T19:04:45.281Z,101.17
2019-02-23T19:07:15.595Z,88.57
2019-02-23T19:09:45.882Z,90.93
2019-02-23T19:12:18.034Z,67.43
2019-02-23T19:14:48.294Z,68.67
2019-02-23T19:17:18.609Z,64.27
2019-02-23T19:19:48.922Z,62.60
2019-02-23T19:22:22.230Z,69.57
2019-02-23T19:24:52.590Z,62.13
2019-02-23T19:27:23.056Z,66.57
2019-02-23T19:29:53.328Z,99.87
2019-02-23T19:32:23.616Z,93.77
2019-02-23T19:34:53.963Z,123.43
2019-02-23T19:37:26.998Z,89.20
2019-02-23T19:39:57.290Z,70.97
2019-02-23T19:42:28.481Z,59.07
2019-02-23T19:44:58.753Z,54.60
2019-02-23T19:47:29.520Z,64.43
2019-02-23T19:50:01.149Z,74.77
2019-02-23T19:52:31.953Z,79.97
2019-02-23T19:55:03.471Z,76.27
2019-02-23T19:57:35.106Z,66.73
2019-02-23T20:00:08.060Z,77.83
2019-02-23T20:02:38.743Z,109.40
2019-02-23T20:05:10.309Z,79.23
2019-02-23T20:07:40.619Z,101.23
2019-02-23T20:10:11.215Z,83.13
2019-02-23T20:12:42.212Z,85.77
2019-02-23T20:15:13.120Z,81.03
2019-02-23T20:17:43.844Z,83.70
2019-02-23T20:20:14.450Z,80.77
2019-02-23T20:22:45.496Z,93.57
2019-02-23T20:25:16.231Z,77.00
2019-02-23T20:27:47.357Z,118.60
2019-02-23T20:30:17.979Z,256.13
2019-02-23T20:32:48.699Z,291.27
2019-02-23T20:35:20.497Z,220.17
2019-02-23T20:37:51.883Z,183.63
2019-02-23T20:40:22.822Z,153.87
2019-02-23T20:42:54.799Z,160.27
2019-02-23T20:45:25.564Z,154.33
2019-02-23T20:47:56.052Z,108.67
2019-02-23T20:50:29.187Z,105.10
2019-02-23T20:53:00.097Z,89.77
2019-02-23T20:55:30.952Z,90.97
2019-02-23T20:58:01.396Z,97.10
2019-02-23T21:00:33.401Z,134.47
2019-02-23T21:03:04.090Z,112.20
2019-02-23T21:05:36.448Z,102.70
2019-02-23T21:08:10.629Z,103.07
2019-02-23T21:10:41.254Z,105.37
2019-02-23T21:13:12.680Z,110.27
2019-02-23T21:15:44.011Z,96.87
2019-02-23T21:18:14.621Z,97.40
2019-02-23T21:20:45.647Z,123.83
2019-02-23T21:23:16.903Z,120.03
2019-02-23T21:25:47.259Z,127.43
2019-02-23T21:28:17.845Z,149.53
2019-02-23T21:30:48.106Z,155.50
2019-02-23T21:33:18.399Z,146.90
2019-02-23T21:35:48.906Z,152.97
2019-02-23T21:38:22.193Z,148.43
2019-02-23T21:40:52.489Z,146.33
2019-02-23T21:43:22.957Z,129.40
2019-02-23T21:45:54.562Z,122.57
2019-02-23T21:48:24.874Z,143.20
2019-02-23T21:50:55.695Z,124.23
2019-02-23T21:53:27.404Z,125.47
2019-02-23T21:55:57.690Z,122.50
2019-02-23T21:58:28.080Z,119.43
2019-02-23T22:00:59.911Z,121.17
2019-02-23T22:03:30.573Z,118.70
2019-02-23T22:06:00.959Z,115.23
2019-02-23T22:08:31.280Z,102.23
2019-02-23T22:11:01.656Z,104.63
2019-02-23T22:13:33.501Z,119.10
2019-02-23T22:16:04.407Z,129.77
2019-02-23T22:18:35.407Z,125.37
2019-02-23T22:21:05.694Z,113.13
2019-02-23T22:23:36.962Z,123.37
2019-02-23T22:26:07.274Z,136.13
2019-02-23T22:28:38.228Z,149.17
2019-02-23T22:31:08.773Z,132.07
2019-02-23T22:33:41.349Z,113.47
2019-02-23T22:36:12.289Z,103.63
2019-02-23T22:38:44.293Z,98.33
2019-02-23T22:41:14.751Z,98.27
2019-02-23T22:43:45.060Z,90.07
2019-02-23T22:46:15.345Z,94.90
2019-02-23T22:48:45.642Z,111.57
2019-02-23T22:51:15.929Z,157.10
2019-02-23T22:53:46.244Z,143.00
2019-02-23T22:56:16.528Z,116.93
2019-02-23T22:58:48.458Z,101.50
2019-02-23T23:01:18.760Z,90.70
2019-02-23T23:03:50.682Z,89.20
2019-02-23T23:06:20.959Z,97.10
2019-02-23T23:08:51.255Z,92.63
2019-02-23T23:11:21.555Z,105.40
2019-02-23T23:13:51.861Z,145.37
2019-02-23T23:16:23.764Z,202.77
2019-02-23T23:18:54.042Z,159.77
2019-02-23T23:21:24.338Z,133.93
2019-02-23T23:23:54.658Z,98.73
2019-02-23T23:26:24.948Z,97.80
2019-02-23T23:28:55.306Z,103.47
2019-02-23T23:31:25.609Z,99.10
2019-02-23T23:33:55.904Z,92.47
2019-02-23T23:36:26.229Z,87.17
2019-02-23T23:38:56.510Z,91.70
2019-02-23T23:41:26.785Z,83.67
2019-02-23T23:43:57.077Z,81.27
2019-02-23T23:46:27.332Z,80.07
2019-02-23T23:48:57.626Z,84.33
2019-02-23T23:51:27.896Z,73.07
2019-02-23T23:53:58.195Z,75.37
2019-02-23T23:56:28.525Z,73.53
2019-02-23T23:58:58.821Z,77.23
